createdAt,value
2019-02-25T00:00:48.682Z,17.73
2019-02-25T00:02:23.969Z,18.83
2019-02-25T00:03:57.608Z,23.13
2019-02-25T00:05:31.482Z,21.23
2019-02-25T00:07:05.632Z,17.97
2019-02-25T00:08:39.278Z,12.97
2019-02-25T00:10:13.088Z,12.17
2019-02-25T00:11:46.870Z,12.43
2019-02-25T00:13:21.027Z,13.70
2019-02-25T00:14:55.264Z,15.88
2019-02-25T00:16:28.924Z,14.43
2019-02-25T00:18:02.589Z,18.20
2019-02-25T00:19:36.533Z,43.60
2019-02-25T00:21:10.169Z,30.13
2019-02-25T00:22:44.108Z,23.97
2019-02-25T00:24:17.880Z,21.93
2019-02-25T00:25:51.614Z,17.00
2019-02-25T00:27:25.832Z,14.65
2019-02-25T00:28:59.482Z,14.90
2019-02-25T00:30:33.151Z,14.20
2019-02-25T00:32:07.222Z,15.37
2019-02-25T00:33:40.877Z,14.27
2019-02-25T00:35:14.521Z,15.23
2019-02-25T00:36:48.266Z,14.60
2019-02-25T00:38:22.772Z,12.87
2019-02-25T00:39:56.481Z,13.53
2019-02-25T00:41:30.108Z,13.07
2019-02-25T00:43:03.770Z,13.67
2019-02-25T00:44:37.827Z,13.83
2019-02-25T00:46:11.529Z,13.27
2019-02-25T00:47:45.229Z,12.27
2019-02-25T00:49:18.899Z,11.53
2019-02-25T00:50:53.010Z,10.50
2019-02-25T00:52:26.770Z,12.00
2019-02-25T00:54:01.253Z,12.27
2019-02-25T00:55:34.875Z,11.93
2019-02-25T00:57:09.091Z,11.17
2019-02-25T00:58:42.846Z,10.17
2019-02-25T01:00:24.125Z,10.20
2019-02-25T01:01:57.839Z,11.63
2019-02-25T01:03:32.163Z,12.50
2019-02-25T01:05:06.549Z,13.10
2019-02-25T01:06:40.229Z,11.97
2019-02-25T01:08:13.923Z,14.67
2019-02-25T01:09:47.807Z,12.60
2019-02-25T01:11:21.566Z,11.93
2019-02-25T01:12:55.304Z,12.53
2019-02-25T01:14:29.003Z,11.57
2019-02-25T01:16:03.014Z,11.43
2019-02-25T01:17:36.701Z,12.87
2019-02-25T01:19:10.347Z,12.40
2019-02-25T01:20:43.998Z,15.43
2019-02-25T01:22:18.100Z,14.53
2019-02-25T01:23:51.798Z,13.63
2019-02-25T01:25:28.551Z,13.33
2019-02-25T01:27:02.233Z,12.53
2019-02-25T01:28:36.369Z,14.00
2019-02-25T01:30:13.273Z,11.50
2019-02-25T01:31:46.985Z,11.53
2019-02-25T01:33:21.849Z,14.97
2019-02-25T01:34:55.866Z,13.43
2019-02-25T01:36:29.510Z,13.60
2019-02-25T01:38:03.155Z,12.53
2019-02-25T01:39:36.886Z,12.60
2019-02-25T01:41:11.224Z,15.00
2019-02-25T01:42:44.874Z,12.13
2019-02-25T01:44:18.608Z,11.40
2019-02-25T01:45:52.300Z,11.93
2019-02-25T01:47:26.458Z,12.73
2019-02-25T01:49:00.198Z,14.50
2019-02-25T01:50:33.809Z,14.13
2019-02-25T01:52:07.449Z,13.10
2019-02-25T01:53:41.454Z,12.83
2019-02-25T01:55:15.270Z,12.70
2019-02-25T01:56:48.966Z,10.50
2019-02-25T01:58:22.671Z,12.30
2019-02-25T01:59:56.948Z,11.33
2019-02-25T02:01:30.693Z,9.10
2019-02-25T02:03:04.386Z,11.83
2019-02-25T02:04:38.019Z,10.20
2019-02-25T02:06:12.267Z,8.77
2019-02-25T02:07:45.968Z,9.77
2019-02-25T02:09:19.591Z,9.23
2019-02-25T02:10:53.241Z,10.67
2019-02-25T02:12:27.446Z,10.73
2019-02-25T02:14:01.154Z,8.80
2019-02-25T02:15:34.857Z,9.07
2019-02-25T02:17:08.560Z,10.83
2019-02-25T02:18:42.848Z,10.63
2019-02-25T02:20:17.921Z,10.77
2019-02-25T02:21:51.533Z,10.17
2019-02-25T02:23:25.182Z,10.50
2019-02-25T02:24:59.377Z,10.33
2019-02-25T02:26:33.037Z,11.30
2019-02-25T02:28:06.686Z,11.27
2019-02-25T02:29:40.418Z,11.40
2019-02-25T02:31:14.377Z,11.07
2019-02-25T02:32:48.038Z,11.13
2019-02-25T02:34:21.658Z,10.33
2019-02-25T02:35:55.351Z,10.80
2019-02-25T02:37:29.461Z,12.50
2019-02-25T02:39:03.146Z,10.27
2019-02-25T02:40:36.816Z,11.63
2019-02-25T02:42:15.497Z,12.57
2019-02-25T02:43:49.441Z,12.00
2019-02-25T02:45:26.149Z,13.03
2019-02-25T02:47:22.251Z,11.33
2019-02-25T02:48:59.789Z,12.77
2019-02-25T02:50:33.467Z,11.73
2019-02-25T02:52:07.113Z,11.93
2019-02-25T02:53:40.842Z,11.30
2019-02-25T02:55:15.048Z,12.20
2019-02-25T02:56:48.668Z,12.60
2019-02-25T02:58:22.335Z,11.43
2019-02-25T02:59:56.026Z,11.67
2019-02-25T03:01:30.019Z,11.10
2019-02-25T03:03:03.783Z,11.67
2019-02-25T03:04:37.493Z,12.97
2019-02-25T03:06:11.204Z,11.43
2019-02-25T03:07:45.129Z,12.00
2019-02-25T03:09:18.760Z,14.17
2019-02-25T03:10:52.388Z,14.53
2019-02-25T03:12:26.175Z,12.20
2019-02-25T03:14:00.124Z,12.73
2019-02-25T03:15:33.748Z,12.80
2019-02-25T03:17:07.488Z,14.43
2019-02-25T03:18:41.239Z,14.23
2019-02-25T03:20:15.220Z,12.87
2019-02-25T03:21:48.907Z,15.80
2019-02-25T03:23:22.597Z,13.87
2019-02-25T03:24:56.324Z,13.60
2019-02-25T03:26:30.298Z,18.40
2019-02-25T03:28:04.064Z,17.10
2019-02-25T03:29:37.890Z,16.13
2019-02-25T03:31:11.525Z,13.07
2019-02-25T03:32:45.507Z,13.83
2019-02-25T03:34:19.193Z,14.27
2019-02-25T03:35:52.889Z,12.70
2019-02-25T03:37:26.529Z,13.00
2019-02-25T03:39:00.585Z,13.13
2019-02-25T03:40:34.246Z,13.10
2019-02-25T03:42:07.994Z,12.40
2019-02-25T03:43:41.712Z,12.50
2019-02-25T03:45:17.230Z,14.37
2019-02-25T03:46:50.867Z,20.13
2019-02-25T03:48:24.513Z,16.60
2019-02-25T03:49:58.227Z,12.63
2019-02-25T03:51:32.108Z,13.03
2019-02-25T03:53:05.906Z,14.27
2019-02-25T03:54:39.564Z,13.60
2019-02-25T03:56:13.211Z,14.00
2019-02-25T03:57:47.191Z,15.00
2019-02-25T03:59:20.885Z,15.80
2019-02-25T04:00:54.511Z,13.03
2019-02-25T04:02:28.161Z,17.47
2019-02-25T04:04:01.900Z,12.40
2019-02-25T04:05:35.618Z,13.17
2019-02-25T04:07:09.364Z,21.23
2019-02-25T04:08:43.013Z,24.43
2019-02-25T04:10:17.091Z,26.60
2019-02-25T04:11:50.735Z,27.87
2019-02-25T04:13:24.506Z,26.40
2019-02-25T04:14:58.195Z,23.70
2019-02-25T04:16:32.018Z,19.40
2019-02-25T04:18:05.756Z,18.07
2019-02-25T04:19:39.390Z,15.67
2019-02-25T04:21:13.096Z,35.53
2019-02-25T04:22:47.081Z,39.03
2019-02-25T04:24:20.761Z,31.53
2019-02-25T04:25:54.391Z,23.93
2019-02-25T04:27:28.044Z,28.27
2019-02-25T04:29:02.160Z,17.40
2019-02-25T04:30:35.878Z,14.97
2019-02-25T04:32:09.570Z,17.47
2019-02-25T04:33:43.324Z,13.40
2019-02-25T04:35:17.167Z,13.40
2019-02-25T04:36:50.792Z,12.73
2019-02-25T04:38:24.422Z,11.80
2019-02-25T04:39:58.123Z,13.03
2019-02-25T04:41:32.429Z,13.27
2019-02-25T04:43:06.086Z,11.90
2019-02-25T04:44:39.766Z,12.13
2019-02-25T04:46:13.423Z,13.57
2019-02-25T04:47:47.434Z,15.10
2019-02-25T04:49:21.094Z,14.03
2019-02-25T04:50:54.818Z,13.27
2019-02-25T04:52:28.530Z,13.43
2019-02-25T04:54:02.429Z,13.40
2019-02-25T04:55:36.069Z,13.37
2019-02-25T04:57:09.741Z,16.70
2019-02-25T04:58:43.403Z,19.70
2019-02-25T05:00:22.417Z,17.47
2019-02-25T05:01:56.113Z,17.03
2019-02-25T05:03:29.817Z,14.67
2019-02-25T05:05:03.517Z,13.67
2019-02-25T05:06:37.282Z,13.97
2019-02-25T05:08:11.016Z,13.93
2019-02-25T05:09:44.777Z,16.80
2019-02-25T05:11:18.475Z,18.40
2019-02-25T05:12:53.893Z,19.00
2019-02-25T05:14:27.525Z,17.17
2019-02-25T05:16:01.281Z,17.60
2019-02-25T05:17:35.098Z,21.07
2019-02-25T05:19:09.156Z,18.00
2019-02-25T05:20:42.942Z,18.83
2019-02-25T05:22:16.560Z,18.40
2019-02-25T05:23:50.249Z,19.00
2019-02-25T05:25:24.242Z,17.90
2019-02-25T05:26:57.989Z,33.13
2019-02-25T05:28:31.703Z,112.30
2019-02-25T05:30:08.679Z,114.90
2019-02-25T05:31:42.767Z,149.83
2019-02-25T05:33:16.831Z,91.07
2019-02-25T05:34:50.563Z,141.00
2019-02-25T05:36:24.264Z,71.80
2019-02-25T05:37:58.220Z,39.80
2019-02-25T05:39:31.933Z,31.80
2019-02-25T05:41:05.555Z,22.13
2019-02-25T05:42:39.235Z,18.50
2019-02-25T05:44:13.425Z,22.00
2019-02-25T05:45:47.102Z,47.07
2019-02-25T05:47:20.784Z,24.20
2019-02-25T05:48:54.439Z,22.50
2019-02-25T05:50:28.168Z,31.33
2019-02-25T05:52:01.899Z,20.03
2019-02-25T05:53:35.599Z,21.27
2019-02-25T05:55:12.042Z,40.23
2019-02-25T05:56:45.860Z,28.00
2019-02-25T05:58:19.492Z,29.07
2019-02-25T05:59:53.188Z,37.10
2019-02-25T06:01:26.924Z,42.83
2019-02-25T06:03:00.745Z,53.20
2019-02-25T06:04:35.137Z,56.63
2019-02-25T06:06:08.848Z,56.30
2019-02-25T06:07:42.506Z,50.90
2019-02-25T06:09:16.569Z,29.17
2019-02-25T06:10:50.231Z,39.40
2019-02-25T06:12:23.927Z,42.17
2019-02-25T06:13:57.577Z,31.63
2019-02-25T06:15:31.321Z,23.37
2019-02-25T06:17:04.976Z,17.03
2019-02-25T06:18:38.998Z,22.37
2019-02-25T06:20:14.559Z,20.27
2019-02-25T06:21:48.383Z,21.60
2019-02-25T06:23:22.030Z,19.20
2019-02-25T06:24:55.801Z,21.10
2019-02-25T06:26:29.447Z,14.80
2019-02-25T06:28:03.379Z,14.90
2019-02-25T06:29:37.070Z,11.70
2019-02-25T06:31:10.766Z,12.27
2019-02-25T06:32:44.410Z,18.50
2019-02-25T06:34:18.369Z,15.60
2019-02-25T06:35:52.291Z,13.50
2019-02-25T06:37:26.077Z,13.97
2019-02-25T06:38:59.725Z,15.57
2019-02-25T06:40:33.649Z,15.27
2019-02-25T06:42:07.945Z,15.20
2019-02-25T06:43:41.678Z,21.43
2019-02-25T06:45:26.290Z,19.40
2019-02-25T06:47:00.091Z,19.40
2019-02-25T06:48:34.316Z,22.35
2019-02-25T06:50:10.004Z,26.03
2019-02-25T06:51:43.835Z,23.90
2019-02-25T06:53:17.775Z,24.37
2019-02-25T06:54:51.408Z,24.00
2019-02-25T06:56:25.187Z,17.63
2019-02-25T06:57:58.853Z,20.50
2019-02-25T06:59:33.139Z,27.20
2019-02-25T07:01:06.784Z,24.20
2019-02-25T07:02:40.497Z,23.53
2019-02-25T07:04:27.363Z,23.67
2019-02-25T07:06:08.818Z,21.37
2019-02-25T07:07:50.590Z,22.50
2019-02-25T07:09:25.888Z,25.57
2019-02-25T07:11:13.913Z,26.77
2019-02-25T07:12:52.348Z,26.63
2019-02-25T07:14:43.901Z,29.10
2019-02-25T07:16:22.430Z,30.70
2019-02-25T07:17:57.735Z,30.00
2019-02-25T07:19:33.936Z,26.57
2019-02-25T07:21:09.227Z,25.77
2019-02-25T07:22:44.908Z,21.13
2019-02-25T07:24:23.112Z,20.63
2019-02-25T07:25:58.458Z,23.63
2019-02-25T07:27:42.335Z,29.43
2019-02-25T07:29:18.023Z,25.27
2019-02-25T07:30:53.292Z,24.67
2019-02-25T07:32:30.135Z,26.03
2019-02-25T07:34:12.077Z,27.00
2019-02-25T07:35:53.588Z,29.87
2019-02-25T07:37:34.630Z,30.07
2019-02-25T07:39:22.553Z,35.17
2019-02-25T07:41:13.193Z,29.90
2019-02-25T07:43:03.687Z,25.53
2019-02-25T07:44:47.972Z,21.90
2019-02-25T07:46:23.558Z,22.70
2019-02-25T07:48:05.612Z,27.45
2019-02-25T07:49:43.838Z,27.07
2019-02-25T07:51:35.867Z,27.07
2019-02-25T07:53:11.145Z,31.83
2019-02-25T07:55:04.677Z,30.60
2019-02-25T07:56:40.403Z,27.70
2019-02-25T07:58:15.723Z,27.00
2019-02-25T07:59:56.826Z,29.67
2019-02-25T08:01:48.619Z,30.43
2019-02-25T08:03:23.927Z,27.50
2019-02-25T08:05:08.027Z,28.70
2019-02-25T08:07:01.578Z,28.33
2019-02-25T08:08:42.661Z,22.30
2019-02-25T08:10:20.817Z,20.23
2019-02-25T08:11:56.118Z,19.13
2019-02-25T08:13:43.811Z,17.83
2019-02-25T08:15:19.104Z,18.13
2019-02-25T08:16:54.375Z,16.40
2019-02-25T08:18:29.651Z,23.73
2019-02-25T08:20:05.150Z,18.73
2019-02-25T08:21:46.162Z,26.20
2019-02-25T08:23:36.467Z,17.07
2019-02-25T08:25:21.208Z,15.53
2019-02-25T08:27:12.913Z,19.52
2019-02-25T08:28:48.233Z,18.23
2019-02-25T08:30:29.989Z,13.70
2019-02-25T08:32:05.290Z,18.50
2019-02-25T08:33:52.702Z,21.30
2019-02-25T08:35:58.201Z,11.47
2019-02-25T08:37:51.403Z,13.47
2019-02-25T08:39:26.511Z,10.60
2019-02-25T08:41:03.330Z,13.97
2019-02-25T08:42:52.398Z,13.83
2019-02-25T08:44:30.559Z,14.97
2019-02-25T08:46:15.391Z,17.15
2019-02-25T08:47:50.649Z,17.97
2019-02-25T08:49:26.005Z,18.23
2019-02-25T08:51:00.294Z,20.82
2019-02-25T08:52:34.327Z,30.43
2019-02-25T08:54:08.033Z,36.17
2019-02-25T08:55:41.868Z,26.33
2019-02-25T08:57:15.718Z,26.87
2019-02-25T08:58:50.147Z,27.85
2019-02-25T09:00:24.473Z,31.48
2019-02-25T09:01:58.214Z,29.57
2019-02-25T09:03:32.413Z,30.60
2019-02-25T09:05:09.243Z,36.53
2019-02-25T09:06:42.877Z,30.80
2019-02-25T09:08:16.542Z,28.83
2019-02-25T09:09:50.244Z,26.33
2019-02-25T09:11:24.527Z,32.20
2019-02-25T09:12:58.559Z,32.83
2019-02-25T09:14:32.348Z,37.37
2019-02-25T09:16:06.580Z,39.60
2019-02-25T09:17:43.005Z,46.98
2019-02-25T09:19:17.214Z,44.15
2019-02-25T09:20:51.514Z,43.50
2019-02-25T09:22:25.746Z,41.80
2019-02-25T09:24:00.239Z,39.90
2019-02-25T09:25:34.501Z,33.55
2019-02-25T09:27:08.767Z,30.50
2019-02-25T09:28:43.187Z,31.15
2019-02-25T09:30:21.186Z,22.07
2019-02-25T09:31:55.423Z,19.87
2019-02-25T09:33:29.741Z,20.45
2019-02-25T09:35:04.465Z,21.48
2019-02-25T09:36:39.037Z,23.87
2019-02-25T09:38:13.349Z,24.05
2019-02-25T09:39:46.976Z,22.70
2019-02-25T09:41:29.624Z,17.35
2019-02-25T09:42:57.409Z,18.23
2019-02-25T09:44:32.126Z,17.30
2019-02-25T09:46:06.353Z,16.12
2019-02-25T09:47:40.574Z,14.70
2019-02-25T09:49:14.960Z,14.25
2019-02-25T09:50:48.622Z,12.60
2019-02-25T09:52:22.343Z,14.00
2019-02-25T09:53:56.591Z,12.75
2019-02-25T09:55:31.372Z,14.63
2019-02-25T09:57:05.688Z,15.38
2019-02-25T09:58:39.326Z,16.63
2019-02-25T10:00:20.867Z,16.30
2019-02-25T10:01:55.395Z,15.90
2019-02-25T10:03:29.697Z,20.45
2019-02-25T10:05:04.036Z,18.15
2019-02-25T10:06:38.248Z,17.95
2019-02-25T10:08:12.641Z,15.10
2019-02-25T10:09:46.903Z,24.18
2019-02-25T10:11:21.161Z,20.32
2019-02-25T10:12:55.375Z,131.35
2019-02-25T10:14:29.361Z,36.00
2019-02-25T10:16:03.304Z,14.03
2019-02-25T10:17:36.956Z,13.07
2019-02-25T10:19:11.269Z,13.78
2019-02-25T10:20:45.700Z,17.65
2019-02-25T10:22:19.363Z,18.03
2019-02-25T10:23:53.613Z,18.55
2019-02-25T10:25:27.248Z,27.53
2019-02-25T10:27:01.508Z,27.20
2019-02-25T10:28:35.218Z,18.00
2019-02-25T10:30:14.739Z,17.25
2019-02-25T10:31:48.787Z,16.90
2019-02-25T10:33:22.720Z,13.80
2019-02-25T10:34:56.976Z,16.07
2019-02-25T10:36:30.614Z,21.90
2019-02-25T10:38:04.699Z,31.43
2019-02-25T10:39:38.457Z,14.00
2019-02-25T10:41:12.106Z,10.70
2019-02-25T10:42:45.749Z,12.23
2019-02-25T10:44:20.003Z,10.32
2019-02-25T10:45:54.046Z,10.40
2019-02-25T10:47:27.878Z,9.13
2019-02-25T10:49:11.129Z,10.15
2019-02-25T10:50:38.645Z,12.37
2019-02-25T10:52:13.422Z,21.50
2019-02-25T10:53:49.940Z,12.37
2019-02-25T10:55:45.069Z,14.87
2019-02-25T10:57:19.239Z,16.97
2019-02-25T10:58:52.749Z,16.73
2019-02-25T11:00:26.548Z,17.17
2019-02-25T11:02:00.278Z,13.73
2019-02-25T11:03:34.194Z,14.10
2019-02-25T11:05:08.881Z,14.80
2019-02-25T11:06:42.595Z,15.30
2019-02-25T11:08:18.096Z,17.50
2019-02-25T11:09:56.475Z,16.97
2019-02-25T11:11:31.753Z,153.45
2019-02-25T11:13:05.432Z,99.80
2019-02-25T11:14:41.117Z,46.63
2019-02-25T11:16:16.433Z,32.90
2019-02-25T11:17:51.817Z,17.90
2019-02-25T11:19:26.988Z,14.40
2019-02-25T11:21:03.681Z,15.13
2019-02-25T11:22:39.385Z,12.05
2019-02-25T11:24:14.174Z,13.60
2019-02-25T11:25:48.326Z,12.40
2019-02-25T11:27:21.995Z,13.97
2019-02-25T11:28:55.969Z,24.87
2019-02-25T11:30:29.691Z,20.13
2019-02-25T11:32:03.306Z,39.00
2019-02-25T11:33:38.023Z,28.50
2019-02-25T11:35:14.530Z,33.73
2019-02-25T11:36:50.838Z,24.30
2019-02-25T11:38:26.147Z,24.77
2019-02-25T11:40:01.684Z,15.78
2019-02-25T11:41:37.155Z,13.05
2019-02-25T11:43:13.366Z,10.90
2019-02-25T11:44:48.173Z,16.55
2019-02-25T11:46:21.799Z,12.37
2019-02-25T11:47:55.694Z,10.67
2019-02-25T11:49:29.757Z,12.27
2019-02-25T11:51:04.079Z,13.32
2019-02-25T11:52:37.826Z,13.30
2019-02-25T11:54:12.511Z,11.68
2019-02-25T11:55:46.224Z,9.37
2019-02-25T11:57:19.892Z,9.63
2019-02-25T11:58:54.166Z,15.32
2019-02-25T12:00:29.930Z,9.93
2019-02-25T12:02:03.647Z,10.27
2019-02-25T12:03:37.991Z,13.08
2019-02-25T12:05:13.288Z,13.13
2019-02-25T12:06:47.037Z,14.23
2019-02-25T12:08:21.341Z,16.73
2019-02-25T12:09:55.091Z,18.03
2019-02-25T12:11:29.312Z,10.88
2019-02-25T12:13:03.745Z,11.10
2019-02-25T12:14:37.449Z,8.30
2019-02-25T12:16:11.722Z,9.65
2019-02-25T12:17:45.408Z,8.33
2019-02-25T12:19:19.445Z,10.13
2019-02-25T12:20:53.513Z,10.20
2019-02-25T12:22:27.806Z,12.88
2019-02-25T12:24:03.148Z,11.13
2019-02-25T12:25:36.878Z,25.40
2019-02-25T12:27:11.887Z,20.60
2019-02-25T12:28:45.771Z,22.20
2019-02-25T12:30:27.417Z,13.50
2019-02-25T12:32:02.030Z,9.20
2019-02-25T12:33:36.259Z,10.65
2019-02-25T12:35:11.086Z,9.30
2019-02-25T12:36:45.126Z,10.87
2019-02-25T12:38:18.977Z,12.33
2019-02-25T12:39:52.659Z,13.53
2019-02-25T12:41:27.317Z,10.57
2019-02-25T12:43:01.228Z,12.10
2019-02-25T12:44:35.186Z,11.70
2019-02-25T12:46:09.409Z,12.23
2019-02-25T12:47:43.234Z,10.10
2019-02-25T12:49:16.955Z,10.57
2019-02-25T12:50:50.984Z,11.67
2019-02-25T12:52:24.930Z,7.43
2019-02-25T12:53:58.630Z,7.97
2019-02-25T12:55:32.261Z,8.67
2019-02-25T12:57:06.187Z,8.37
2019-02-25T12:58:40.486Z,10.10
2019-02-25T13:00:19.042Z,12.93
2019-02-25T13:01:52.685Z,9.77
2019-02-25T13:03:27.222Z,13.22
2019-02-25T13:05:00.862Z,13.73
2019-02-25T13:06:35.111Z,12.45
2019-02-25T13:08:09.240Z,15.63
2019-02-25T13:09:43.619Z,12.75
2019-02-25T13:11:17.240Z,12.70
2019-02-25T13:12:52.645Z,12.65
2019-02-25T13:14:26.865Z,39.00
2019-02-25T13:16:00.791Z,12.57
2019-02-25T13:17:34.516Z,15.80
2019-02-25T13:19:08.214Z,17.50
2019-02-25T13:20:42.490Z,12.07
2019-02-25T13:22:16.390Z,10.10
2019-02-25T13:23:51.135Z,12.30
2019-02-25T13:25:27.057Z,14.20
2019-02-25T13:27:02.815Z,10.80
2019-02-25T13:28:36.771Z,16.80
2019-02-25T13:30:15.932Z,16.55
2019-02-25T13:31:50.149Z,13.75
2019-02-25T13:33:24.420Z,25.15
2019-02-25T13:34:58.954Z,10.88
2019-02-25T13:36:33.174Z,16.25
2019-02-25T13:38:06.803Z,14.23
2019-02-25T13:39:41.931Z,12.98
2019-02-25T13:41:15.801Z,12.37
2019-02-25T13:42:49.448Z,14.13
2019-02-25T13:44:23.175Z,18.70
2019-02-25T13:45:57.469Z,14.93
2019-02-25T13:47:31.919Z,13.50
2019-02-25T13:49:06.148Z,16.37
2019-02-25T13:50:39.776Z,18.57
2019-02-25T13:52:13.443Z,17.37
2019-02-25T13:53:47.318Z,14.83
2019-02-25T13:55:22.387Z,10.20
2019-02-25T13:56:56.003Z,10.47
2019-02-25T13:58:30.298Z,13.48
2019-02-25T14:00:07.942Z,12.98
2019-02-25T14:01:42.456Z,15.72
2019-02-25T14:03:16.104Z,11.60
2019-02-25T14:04:49.846Z,12.60
2019-02-25T14:06:23.967Z,22.82
2019-02-25T14:07:57.731Z,22.60
2019-02-25T14:09:32.024Z,14.45
2019-02-25T14:11:06.035Z,10.67
2019-02-25T14:12:40.486Z,12.55
2019-02-25T14:14:14.797Z,13.25
2019-02-25T14:15:49.095Z,18.12
2019-02-25T14:17:23.316Z,16.42
2019-02-25T14:18:58.127Z,16.35
2019-02-25T14:20:31.882Z,27.03
2019-02-25T14:22:05.601Z,24.50
2019-02-25T14:23:40.551Z,18.10
2019-02-25T14:25:19.744Z,14.50
2019-02-25T14:26:54.535Z,10.60
2019-02-25T14:28:30.110Z,26.70
2019-02-25T14:30:03.693Z,15.57
2019-02-25T14:31:37.835Z,18.70
2019-02-25T14:33:12.698Z,15.15
2019-02-25T14:34:47.965Z,11.65
2019-02-25T14:36:21.609Z,11.57
2019-02-25T14:38:05.120Z,16.47
2019-02-25T14:39:35.374Z,11.27
2019-02-25T14:41:08.927Z,10.83
2019-02-25T14:42:46.833Z,10.53
2019-02-25T14:44:20.010Z,10.93
2019-02-25T14:45:55.831Z,11.43
2019-02-25T14:47:36.729Z,15.03
2019-02-25T14:49:08.173Z,14.83
2019-02-25T14:50:43.490Z,11.87
2019-02-25T14:52:18.982Z,13.23
2019-02-25T14:53:54.877Z,13.78
2019-02-25T14:55:28.553Z,14.90
2019-02-25T14:57:02.700Z,15.97
2019-02-25T14:58:37.838Z,15.13
2019-02-25T15:00:19.181Z,23.73
2019-02-25T15:01:53.513Z,13.32
2019-02-25T15:03:29.847Z,12.20
2019-02-25T15:05:04.585Z,12.13
2019-02-25T15:06:38.197Z,13.53
2019-02-25T15:08:12.060Z,25.02
2019-02-25T15:09:45.965Z,25.23
2019-02-25T15:11:20.324Z,21.42
2019-02-25T15:12:56.922Z,22.07
2019-02-25T15:14:29.613Z,18.30
2019-02-25T15:16:04.269Z,20.17
2019-02-25T15:17:38.010Z,17.50
2019-02-25T15:19:13.373Z,13.97
2019-02-25T15:20:48.916Z,15.53
2019-02-25T15:22:22.511Z,15.30
2019-02-25T15:23:56.280Z,24.75
2019-02-25T15:25:31.590Z,21.40
2019-02-25T15:27:06.603Z,19.73
2019-02-25T15:28:40.828Z,20.67
2019-02-25T15:30:20.723Z,18.77
2019-02-25T15:31:57.023Z,26.07
2019-02-25T15:33:31.457Z,25.70
2019-02-25T15:35:09.281Z,28.43
2019-02-25T15:36:44.918Z,26.23
2019-02-25T15:38:18.353Z,17.27
2019-02-25T15:39:52.004Z,17.30
2019-02-25T15:41:26.327Z,16.70
2019-02-25T15:43:03.170Z,13.22
2019-02-25T15:44:37.470Z,13.62
2019-02-25T15:46:14.222Z,14.77
2019-02-25T15:47:48.982Z,18.53
2019-02-25T15:49:25.624Z,20.45
2019-02-25T15:51:00.707Z,23.52
2019-02-25T15:52:39.981Z,25.90
2019-02-25T15:54:11.257Z,26.40
2019-02-25T15:55:44.999Z,25.10
2019-02-25T15:57:20.633Z,29.20
2019-02-25T15:58:53.952Z,24.60
2019-02-25T16:00:29.976Z,19.03
2019-02-25T16:02:05.530Z,15.23
2019-02-25T16:03:42.958Z,22.82
2019-02-25T16:05:16.536Z,22.97
2019-02-25T16:06:51.287Z,27.27
2019-02-25T16:08:26.093Z,25.57
2019-02-25T16:10:04.925Z,34.53
2019-02-25T16:11:39.169Z,49.95
2019-02-25T16:13:14.211Z,61.73
2019-02-25T16:14:49.298Z,66.28
2019-02-25T16:16:24.641Z,80.50
2019-02-25T16:17:58.964Z,87.57
2019-02-25T16:19:41.515Z,77.78
2019-02-25T16:21:11.206Z,76.02
2019-02-25T16:22:48.083Z,70.80
2019-02-25T16:24:24.038Z,74.85
2019-02-25T16:25:57.956Z,85.93
2019-02-25T16:27:32.259Z,93.90
2019-02-25T16:29:07.334Z,91.32
2019-02-25T16:30:44.538Z,85.72
2019-02-25T16:32:19.253Z,83.62
2019-02-25T16:33:55.570Z,91.75
2019-02-25T16:35:29.788Z,114.93
2019-02-25T16:37:04.849Z,98.22
2019-02-25T16:38:39.533Z,97.10
2019-02-25T16:40:17.925Z,97.17
2019-02-25T16:41:52.017Z,104.33
2019-02-25T16:43:25.762Z,114.53
2019-02-25T16:45:01.493Z,126.67
2019-02-25T16:46:38.545Z,156.87
2019-02-25T16:48:11.278Z,126.07
2019-02-25T16:49:47.100Z,118.15
2019-02-25T16:51:23.804Z,126.73
2019-02-25T16:52:56.492Z,146.07
2019-02-25T16:54:30.262Z,127.83
2019-02-25T16:56:05.684Z,129.90
2019-02-25T16:57:41.224Z,140.47
2019-02-25T16:59:16.167Z,137.43
2019-02-25T17:00:51.625Z,133.30
2019-02-25T17:02:27.486Z,149.20
2019-02-25T17:04:03.557Z,145.53
2019-02-25T17:05:38.032Z,139.90
2019-02-25T17:07:14.378Z,128.27
2019-02-25T17:08:48.884Z,125.20
2019-02-25T17:10:31.017Z,121.75
2019-02-25T17:12:05.141Z,119.30
2019-02-25T17:13:41.453Z,128.68
2019-02-25T17:15:19.800Z,130.60
2019-02-25T17:16:56.613Z,138.87
2019-02-25T17:18:30.926Z,128.27
2019-02-25T17:20:13.012Z,126.40
2019-02-25T17:21:46.180Z,131.83
2019-02-25T17:23:20.021Z,133.73
2019-02-25T17:24:54.300Z,135.97
2019-02-25T17:26:29.759Z,135.20
2019-02-25T17:28:03.492Z,130.33
2019-02-25T17:29:37.565Z,134.80
2019-02-25T17:31:11.987Z,132.83
2019-02-25T17:32:48.274Z,136.77
2019-02-25T17:34:21.921Z,144.47
2019-02-25T17:35:55.877Z,152.57
2019-02-25T17:37:31.382Z,146.93
2019-02-25T17:39:08.597Z,144.23
2019-02-25T17:40:42.318Z,130.97
2019-02-25T17:42:17.543Z,113.37
2019-02-25T17:43:51.489Z,153.60
2019-02-25T17:45:29.116Z,168.27
2019-02-25T17:47:04.437Z,149.27
2019-02-25T17:48:38.470Z,180.43
2019-02-25T17:50:15.160Z,172.60
2019-02-25T17:51:49.597Z,186.93
2019-02-25T17:53:26.237Z,149.33
2019-02-25T17:55:03.992Z,163.20
2019-02-25T17:56:40.517Z,105.57
2019-02-25T17:58:14.857Z,109.00
2019-02-25T17:59:50.697Z,119.23
2019-02-25T18:01:26.297Z,112.67
2019-02-25T18:03:01.503Z,118.20
2019-02-25T18:04:35.801Z,123.87
2019-02-25T18:06:09.535Z,107.63
2019-02-25T18:07:45.972Z,100.15
2019-02-25T18:09:20.469Z,92.50
2019-02-25T18:10:54.873Z,113.40
2019-02-25T18:12:29.684Z,105.33
2019-02-25T18:14:05.272Z,97.43
2019-02-25T18:15:39.607Z,82.55
2019-02-25T18:17:15.355Z,74.37
2019-02-25T18:18:50.678Z,77.57
2019-02-25T18:20:25.639Z,69.33
2019-02-25T18:21:59.366Z,69.07
2019-02-25T18:23:34.427Z,56.03
2019-02-25T18:25:11.293Z,104.93
2019-02-25T18:26:46.934Z,122.05
2019-02-25T18:28:22.595Z,117.25
2019-02-25T18:29:57.084Z,116.93
2019-02-25T18:31:31.593Z,105.13
2019-02-25T18:33:05.501Z,101.90
2019-02-25T18:34:39.188Z,86.83
2019-02-25T18:36:12.910Z,80.80
2019-02-25T18:37:46.616Z,65.20
2019-02-25T18:39:23.123Z,49.67
2019-02-25T18:40:58.664Z,44.67
2019-02-25T18:42:34.860Z,49.30
2019-02-25T18:44:09.263Z,26.17
2019-02-25T18:45:44.773Z,24.33
2019-02-25T18:47:20.643Z,26.20
2019-02-25T18:48:54.603Z,25.60
2019-02-25T18:50:29.008Z,30.07
2019-02-25T18:52:03.966Z,32.17
2019-02-25T18:53:37.655Z,20.57
2019-02-25T18:55:13.892Z,24.23
2019-02-25T18:56:47.602Z,47.17
2019-02-25T18:58:22.614Z,24.40
2019-02-25T18:59:57.719Z,25.35
2019-02-25T19:01:32.687Z,23.17
2019-02-25T19:03:07.522Z,22.57
2019-02-25T19:04:43.081Z,18.90
2019-02-25T19:06:17.588Z,16.87
2019-02-25T19:07:53.287Z,21.97
2019-02-25T19:09:28.073Z,21.30
2019-02-25T19:11:02.361Z,21.80
2019-02-25T19:12:36.182Z,28.87
2019-02-25T19:14:09.824Z,33.57
2019-02-25T19:15:43.628Z,31.70
2019-02-25T19:17:17.506Z,39.80
2019-02-25T19:18:51.185Z,59.87
2019-02-25T19:20:25.602Z,78.10
2019-02-25T19:21:59.271Z,91.60
2019-02-25T19:23:35.392Z,131.30
2019-02-25T19:25:14.436Z,125.90
2019-02-25T19:26:46.915Z,126.23
2019-02-25T19:28:24.431Z,125.97
2019-02-25T19:29:58.609Z,119.23
2019-02-25T19:31:31.707Z,109.53
2019-02-25T19:33:11.018Z,107.73
2019-02-25T19:34:41.274Z,97.80
2019-02-25T19:36:15.910Z,58.92
2019-02-25T19:37:49.625Z,53.20
2019-02-25T19:39:23.449Z,44.33
2019-02-25T19:40:57.585Z,50.50
2019-02-25T19:42:31.852Z,39.93
2019-02-25T19:44:05.710Z,38.00
2019-02-25T19:45:40.896Z,35.40
2019-02-25T19:47:16.899Z,37.50
2019-02-25T19:48:51.921Z,35.77
2019-02-25T19:50:27.672Z,42.90
2019-02-25T19:52:01.969Z,40.80
2019-02-25T19:53:36.563Z,41.07
2019-02-25T19:55:13.044Z,39.17
2019-02-25T19:56:48.407Z,36.07
2019-02-25T19:58:24.185Z,33.60
2019-02-25T19:59:59.776Z,32.47
2019-02-25T20:01:33.614Z,30.57
2019-02-25T20:03:07.358Z,32.23
2019-02-25T20:04:42.306Z,30.97
2019-02-25T20:06:18.600Z,29.13
2019-02-25T20:07:54.662Z,28.73
2019-02-25T20:09:27.963Z,31.17
2019-02-25T20:11:01.718Z,38.73
2019-02-25T20:12:35.712Z,44.47
2019-02-25T20:14:11.051Z,71.20
2019-02-25T20:15:46.630Z,62.50
2019-02-25T20:17:21.909Z,69.97
2019-02-25T20:18:56.048Z,80.53
2019-02-25T20:20:36.570Z,82.13
2019-02-25T20:22:12.118Z,88.93